createdAt,value
2019-04-07T00:00:35.974Z,8.07
2019-04-07T00:01:17.207Z,7.13
2019-04-07T00:01:56.002Z,8.17
2019-04-07T00:02:38.544Z,7.70
2019-04-07T00:03:17.352Z,8.00
2019-04-07T00:03:54.939Z,7.40
2019-04-07T00:04:31.687Z,8.93
2019-04-07T00:05:12.509Z,9.20
2019-04-07T00:05:48.594Z,9.17
2019-04-07T00:06:25.860Z,9.20
2019-04-07T00:07:02.519Z,8.80
2019-04-07T00:07:39.434Z,8.40
2019-04-07T00:08:23.925Z,8.83
2019-04-07T00:09:01.627Z,9.93
2019-04-07T00:10:05.700Z,10.10
2019-04-07T00:10:43.514Z,9.30
2019-04-07T00:11:20.591Z,9.10
2019-04-07T00:11:57.655Z,10.27
2019-04-07T00:12:36.249Z,8.97
2019-04-07T00:13:13.627Z,9.40
2019-04-07T00:13:50.334Z,9.70
2019-04-07T00:14:30.035Z,9.37
2019-04-07T00:15:07.061Z,9.07
2019-04-07T00:15:44.244Z,9.67
2019-04-07T00:16:21.491Z,10.40
2019-04-07T00:16:58.573Z,10.37
2019-04-07T00:17:36.257Z,11.07
2019-04-07T00:18:12.628Z,10.40
2019-04-07T00:18:49.590Z,10.00
2019-04-07T00:19:33.756Z,10.67
2019-04-07T00:20:11.603Z,10.60
2019-04-07T00:20:48.472Z,11.33
2019-04-07T00:21:29.205Z,9.37
2019-04-07T00:22:10.591Z,10.87
2019-04-07T00:22:47.086Z,10.73
2019-04-07T00:23:26.230Z,10.50
2019-04-07T00:24:02.510Z,10.50
2019-04-07T00:24:39.281Z,10.97
2019-04-07T00:25:18.022Z,9.90
2019-04-07T00:25:55.809Z,10.30
2019-04-07T00:26:34.236Z,12.33
2019-04-07T00:27:12.369Z,12.73
2019-04-07T00:27:49.209Z,12.10
2019-04-07T00:28:25.972Z,11.10
2019-04-07T00:29:03.230Z,12.23
2019-04-07T00:29:43.154Z,12.27
2019-04-07T00:30:19.797Z,13.10
2019-04-07T00:30:59.502Z,12.30
2019-04-07T00:31:35.801Z,13.07
2019-04-07T00:32:14.132Z,13.33
2019-04-07T00:32:54.757Z,12.33
2019-04-07T00:33:41.359Z,11.13
2019-04-07T00:34:17.857Z,11.17
2019-04-07T00:34:55.235Z,12.60
2019-04-07T00:35:34.467Z,10.70
2019-04-07T00:36:11.325Z,11.50
2019-04-07T00:36:47.622Z,10.23
2019-04-07T00:37:24.651Z,11.53
2019-04-07T00:38:01.494Z,10.63
2019-04-07T00:38:39.401Z,11.50
2019-04-07T00:39:15.927Z,11.23
2019-04-07T00:39:54.105Z,11.30
2019-04-07T00:40:31.768Z,11.70
2019-04-07T00:41:12.684Z,10.50
2019-04-07T00:41:49.167Z,10.03
2019-04-07T00:42:27.410Z,11.37
2019-04-07T00:43:07.142Z,10.13
2019-04-07T00:43:46.031Z,12.17
2019-04-07T00:44:23.544Z,10.37
2019-04-07T00:45:00.843Z,9.93
2019-04-07T00:45:38.568Z,11.23
2019-04-07T00:46:15.244Z,9.87
2019-04-07T00:46:54.058Z,10.20
2019-04-07T00:47:30.955Z,10.70
2019-04-07T00:48:07.730Z,11.10
2019-04-07T00:48:46.282Z,10.57
2019-04-07T00:49:23.113Z,9.87
2019-04-07T00:50:03.059Z,10.07
2019-04-07T00:50:39.337Z,9.90
2019-04-07T00:51:16.754Z,10.10
2019-04-07T00:51:53.943Z,11.40
2019-04-07T00:52:30.278Z,10.33
2019-04-07T00:53:07.760Z,10.70
2019-04-07T00:53:45.435Z,10.20
2019-04-07T00:54:21.732Z,9.63
2019-04-07T00:54:57.964Z,10.10
2019-04-07T00:55:34.328Z,10.60
2019-04-07T00:56:11.589Z,10.03
2019-04-07T00:56:47.868Z,10.40
2019-04-07T00:57:24.180Z,10.67
2019-04-07T00:58:01.061Z,9.87
2019-04-07T00:58:37.885Z,10.97
2019-04-07T00:59:15.428Z,10.30
2019-04-07T00:59:51.753Z,10.90
2019-04-07T01:00:30.337Z,10.97
2019-04-07T01:01:07.566Z,10.90
2019-04-07T01:01:44.987Z,10.43
2019-04-07T01:02:21.681Z,11.43
2019-04-07T01:02:58.594Z,10.40
2019-04-07T01:03:34.998Z,10.53
2019-04-07T01:04:11.254Z,11.23
2019-04-07T01:04:47.677Z,10.70
2019-04-07T01:05:34.716Z,10.80
2019-04-07T01:06:02.211Z,11.30
2019-04-07T01:06:38.499Z,10.40
2019-04-07T01:07:14.705Z,10.60
2019-04-07T01:07:51.002Z,10.40
2019-04-07T01:08:27.284Z,10.13
2019-04-07T01:09:04.521Z,11.97
2019-04-07T01:09:40.754Z,9.40
2019-04-07T01:10:17.451Z,10.83
2019-04-07T01:10:53.563Z,8.73
2019-04-07T01:11:29.738Z,9.23
2019-04-07T01:12:07.219Z,9.37
2019-04-07T01:12:44.888Z,9.40
2019-04-07T01:13:21.194Z,9.87
2019-04-07T01:13:58.183Z,9.37
2019-04-07T01:14:37.104Z,10.87
2019-04-07T01:15:14.245Z,8.30
2019-04-07T01:15:50.672Z,10.60
2019-04-07T01:16:29.408Z,8.93
2019-04-07T01:17:07.124Z,9.20
2019-04-07T01:17:44.582Z,8.40
2019-04-07T01:18:21.736Z,8.87
2019-04-07T01:18:58.333Z,9.00
2019-04-07T01:19:34.613Z,8.60
2019-04-07T01:20:11.748Z,8.93
2019-04-07T01:20:48.403Z,9.13
2019-04-07T01:21:24.996Z,7.80
2019-04-07T01:22:02.371Z,8.63
2019-04-07T01:22:38.618Z,8.53
2019-04-07T01:23:15.037Z,8.07
2019-04-07T01:23:51.742Z,7.73
2019-04-07T01:24:28.631Z,8.77
2019-04-07T01:25:06.066Z,8.50
2019-04-07T01:25:42.373Z,8.73
2019-04-07T01:26:18.704Z,10.23
2019-04-07T01:26:55.849Z,8.70
2019-04-07T01:27:32.163Z,8.07
2019-04-07T01:28:08.537Z,7.70
2019-04-07T01:28:44.929Z,7.97
2019-04-07T01:29:21.847Z,7.53
2019-04-07T01:29:58.242Z,7.93
2019-04-07T01:30:34.937Z,8.80
2019-04-07T01:31:12.187Z,7.30
2019-04-07T01:31:48.516Z,8.73
2019-04-07T01:32:24.741Z,8.70
2019-04-07T01:33:01.054Z,9.50
2019-04-07T01:33:37.744Z,8.90
2019-04-07T01:34:14.014Z,7.67
2019-04-07T01:34:50.377Z,7.80
2019-04-07T01:35:26.741Z,7.80
2019-04-07T01:36:03.214Z,7.93
2019-04-07T01:36:39.479Z,8.70
2019-04-07T01:37:16.253Z,8.90
2019-04-07T01:37:52.401Z,9.27
2019-04-07T01:38:29.079Z,9.30
2019-04-07T01:39:08.680Z,9.70
2019-04-07T01:39:45.158Z,9.17
2019-04-07T01:40:21.404Z,9.37
2019-04-07T01:41:03.166Z,9.57
2019-04-07T01:41:46.477Z,8.60
2019-04-07T01:42:34.443Z,10.30
2019-04-07T01:43:30.751Z,9.03
2019-04-07T01:44:15.517Z,11.13
2019-04-07T01:45:11.555Z,9.60
2019-04-07T01:46:06.400Z,9.93
2019-04-07T01:46:54.742Z,10.30
2019-04-07T01:47:38.714Z,9.93
2019-04-07T01:48:27.433Z,9.60
2019-04-07T01:49:20.778Z,8.60
2019-04-07T01:50:08.613Z,8.70
2019-04-07T01:51:06.718Z,9.93
2019-04-07T01:52:08.374Z,9.13
2019-04-07T01:53:03.501Z,9.27
2019-04-07T01:53:58.209Z,9.70
2019-04-07T01:55:10.319Z,7.97
2019-04-07T01:56:14.143Z,9.50
2019-04-07T01:57:06.911Z,8.43
2019-04-07T01:58:07.334Z,8.30
2019-04-07T01:59:00.476Z,7.60
2019-04-07T01:59:55.706Z,7.60
2019-04-07T02:00:40.376Z,7.93
2019-04-07T02:01:45.187Z,7.57
2019-04-07T02:02:34.759Z,8.80
2019-04-07T02:03:20.385Z,8.40
2019-04-07T02:04:19.081Z,8.30
2019-04-07T02:05:13.417Z,8.27
2019-04-07T02:06:21.053Z,8.10
2019-04-07T02:07:27.284Z,7.47
2019-04-07T02:08:46.314Z,8.20
2019-04-07T02:09:31.612Z,8.00
2019-04-07T02:10:35.173Z,7.53
2019-04-07T02:11:33.978Z,7.70
2019-04-07T02:12:42.430Z,7.80
2019-04-07T02:13:35.234Z,7.47
2019-04-07T02:14:30.289Z,6.40
2019-04-07T02:15:20.047Z,7.03
2019-04-07T02:16:13.619Z,7.23
2019-04-07T02:17:00.901Z,7.70
2019-04-07T02:18:04.077Z,8.27
2019-04-07T02:18:46.713Z,8.53
2019-04-07T02:19:34.985Z,7.73
2019-04-07T02:20:47.593Z,7.97
2019-04-07T02:21:41.029Z,7.30
2019-04-07T02:22:36.620Z,7.47
2019-04-07T02:23:22.867Z,8.70
2019-04-07T02:24:08.074Z,7.97
2019-04-07T02:25:22.961Z,8.27
2019-04-07T02:26:14.702Z,7.60
2019-04-07T02:27:22.922Z,7.10
2019-04-07T02:28:20.333Z,7.30
2019-04-07T02:29:18.091Z,6.90
2019-04-07T02:30:16.201Z,7.30
2019-04-07T02:31:11.605Z,8.17
2019-04-07T02:32:15.290Z,7.43
2019-04-07T02:33:18.135Z,6.47
2019-04-07T02:34:18.074Z,7.43
2019-04-07T02:35:29.999Z,7.50
2019-04-07T02:36:30.658Z,7.30
2019-04-07T02:37:38.800Z,7.40
2019-04-07T02:38:36.873Z,7.17
2019-04-07T02:39:43.830Z,7.03
2019-04-07T02:40:38.304Z,7.93
2019-04-07T02:41:42.480Z,7.13
2019-04-07T02:42:44.378Z,6.80
2019-04-07T02:43:34.456Z,7.70
2019-04-07T02:44:18.460Z,7.50
2019-04-07T02:45:17.060Z,6.80
2019-04-07T02:46:11.086Z,6.73
2019-04-07T02:47:10.490Z,6.77
2019-04-07T02:47:56.488Z,6.03
2019-04-07T02:48:54.568Z,6.70
2019-04-07T02:50:03.483Z,6.40
2019-04-07T02:50:48.079Z,6.67
2019-04-07T02:52:05.710Z,7.50
2019-04-07T02:52:54.626Z,6.83
2019-04-07T02:53:49.253Z,6.43
2019-04-07T02:54:50.331Z,7.83
2019-04-07T02:55:38.130Z,7.50
2019-04-07T02:56:54.061Z,6.63
2019-04-07T02:57:47.419Z,6.63
2019-04-07T02:58:41.350Z,7.20
2019-04-07T02:59:51.584Z,7.43
2019-04-07T03:00:46.841Z,7.30
2019-04-07T03:01:33.032Z,7.30
2019-04-07T03:02:39.944Z,6.87
2019-04-07T03:03:34.692Z,7.57
2019-04-07T03:04:39.227Z,7.07
2019-04-07T03:05:33.383Z,7.93
2019-04-07T03:06:47.490Z,7.33
2019-04-07T03:07:45.165Z,7.47
2019-04-07T03:08:41.649Z,6.63
2019-04-07T03:09:53.433Z,6.90
2019-04-07T03:10:51.416Z,6.87
2019-04-07T03:11:39.283Z,6.80
2019-04-07T03:12:35.449Z,6.03
2019-04-07T03:14:02.088Z,6.17
2019-04-07T03:14:55.719Z,6.93
2019-04-07T03:15:52.857Z,6.97
2019-04-07T03:16:55.824Z,6.67
2019-04-07T03:17:42.389Z,5.93
2019-04-07T03:18:44.278Z,6.83
2019-04-07T03:19:56.386Z,6.00
2019-04-07T03:20:56.692Z,5.77
2019-04-07T03:21:54.284Z,7.37
2019-04-07T03:22:49.302Z,6.63
2019-04-07T03:24:01.050Z,6.37
2019-04-07T03:24:58.803Z,7.57
2019-04-07T03:26:00.869Z,9.63
2019-04-07T03:27:05.839Z,7.67
2019-04-07T03:28:07.218Z,6.57
2019-04-07T03:29:08.630Z,7.93
2019-04-07T03:30:03.545Z,7.30
2019-04-07T03:31:10.402Z,8.03
2019-04-07T03:32:08.516Z,7.90
2019-04-07T03:33:11.254Z,8.00
2019-04-07T03:34:14.774Z,7.80
2019-04-07T03:35:19.803Z,7.40
2019-04-07T03:36:20.453Z,7.37
2019-04-07T03:37:41.034Z,7.37
2019-04-07T03:38:39.472Z,7.00
2019-04-07T03:39:49.253Z,7.00
2019-04-07T03:40:48.244Z,6.40
2019-04-07T03:41:44.799Z,6.73
2019-04-07T03:42:34.358Z,6.27
2019-04-07T03:43:30.394Z,6.60
2019-04-07T03:44:16.156Z,7.10
2019-04-07T03:45:17.748Z,6.60
2019-04-07T03:46:14.299Z,7.03
2019-04-07T03:47:10.225Z,6.17
2019-04-07T03:47:55.772Z,7.43
2019-04-07T03:48:44.501Z,6.43
2019-04-07T03:49:52.986Z,6.97
2019-04-07T03:50:50.827Z,6.27
2019-04-07T03:51:51.489Z,6.77
2019-04-07T03:52:48.996Z,6.70
2019-04-07T03:53:39.363Z,6.47
2019-04-07T03:54:39.952Z,5.60
2019-04-07T03:55:35.224Z,7.10
2019-04-07T03:56:28.529Z,7.07
2019-04-07T03:57:36.279Z,7.20
2019-04-07T03:58:42.923Z,7.13
2019-04-07T03:59:44.720Z,7.30
2019-04-07T04:01:33.021Z,7.00
2019-04-07T04:02:34.508Z,7.03
2019-04-07T04:03:38.770Z,6.83
2019-04-07T04:04:34.779Z,6.30
2019-04-07T04:05:27.370Z,6.90
2019-04-07T04:06:24.699Z,6.30
2019-04-07T04:07:37.142Z,7.50
2019-04-07T04:08:41.691Z,6.60
2019-04-07T04:09:39.161Z,6.30
2019-04-07T04:10:33.019Z,5.13
2019-04-07T04:11:40.613Z,7.00
2019-04-07T04:12:25.633Z,6.07
2019-04-07T04:13:16.556Z,6.73
2019-04-07T04:14:16.505Z,6.23
2019-04-07T04:15:13.476Z,5.90
2019-04-07T04:16:08.026Z,5.80
2019-04-07T04:16:50.871Z,6.53
2019-04-07T04:17:29.068Z,6.47
2019-04-07T04:18:05.480Z,5.93
2019-04-07T04:18:44.743Z,5.73
2019-04-07T04:19:21.110Z,6.20
2019-04-07T04:20:01.237Z,6.10
2019-04-07T04:20:38.854Z,6.07
2019-04-07T04:21:15.426Z,6.77
2019-04-07T04:21:54.436Z,6.50
2019-04-07T04:22:30.885Z,5.53
2019-04-07T04:23:07.803Z,6.20
2019-04-07T04:23:46.214Z,6.10
2019-04-07T04:24:23.011Z,7.07
2019-04-07T04:24:59.449Z,5.53
2019-04-07T04:25:40.729Z,5.63
2019-04-07T04:26:17.817Z,6.60
2019-04-07T04:26:54.692Z,6.57
2019-04-07T04:27:33.317Z,7.00
2019-04-07T04:28:10.825Z,6.30
2019-04-07T04:28:47.258Z,6.47
2019-04-07T04:29:24.596Z,5.77
2019-04-07T04:30:03.114Z,6.57
2019-04-07T04:30:40.425Z,7.23
2019-04-07T04:31:23.256Z,6.77
2019-04-07T04:32:04.155Z,6.10
2019-04-07T04:32:42.310Z,7.43
2019-04-07T04:33:18.508Z,6.10
2019-04-07T04:33:57.917Z,7.47
2019-04-07T04:34:36.961Z,6.97
2019-04-07T04:35:14.992Z,7.00
2019-04-07T04:35:54.533Z,7.53
2019-04-07T04:36:34.551Z,6.33
2019-04-07T04:37:37.574Z,7.60
2019-04-07T04:38:02.316Z,6.10
2019-04-07T04:38:41.603Z,7.07
2019-04-07T04:39:21.288Z,6.90
2019-04-07T04:40:14.078Z,6.70
2019-04-07T04:40:52.746Z,7.00
2019-04-07T04:41:52.033Z,6.10
2019-04-07T04:42:29.694Z,6.57
2019-04-07T04:43:10.193Z,7.00
2019-04-07T04:43:47.229Z,6.80
2019-04-07T04:44:38.845Z,8.60
2019-04-07T04:45:15.885Z,7.17
2019-04-07T04:45:54.823Z,7.00
2019-04-07T04:46:31.154Z,8.13
2019-04-07T04:47:10.740Z,8.03
2019-04-07T04:47:48.331Z,7.90
2019-04-07T04:48:25.859Z,8.47
2019-04-07T04:49:02.641Z,7.90
2019-04-07T04:49:40.439Z,7.90
2019-04-07T04:50:25.811Z,6.53
2019-04-07T04:51:01.978Z,8.27
2019-04-07T04:51:40.976Z,8.23
2019-04-07T04:52:18.019Z,8.20
2019-04-07T04:52:54.624Z,7.60
2019-04-07T04:53:32.054Z,7.07
2019-04-07T04:54:08.512Z,7.60
2019-04-07T04:54:44.667Z,7.70
2019-04-07T04:55:22.188Z,7.23
2019-04-07T04:55:59.451Z,8.00
2019-04-07T04:56:46.924Z,7.27
2019-04-07T04:57:23.360Z,7.20
2019-04-07T04:57:59.606Z,8.60
2019-04-07T04:58:36.063Z,6.97
2019-04-07T04:59:12.816Z,6.90
2019-04-07T04:59:49.262Z,7.20
2019-04-07T05:00:26.477Z,7.73
2019-04-07T05:01:03.064Z,7.33
2019-04-07T05:01:39.739Z,7.53
2019-04-07T05:02:16.041Z,6.50
2019-04-07T05:02:52.711Z,8.10
2019-04-07T05:03:31.584Z,7.90
2019-04-07T05:04:08.000Z,7.10
2019-04-07T05:04:44.750Z,8.03
2019-04-07T05:05:21.277Z,8.00
2019-04-07T05:05:57.778Z,7.80
2019-04-07T05:06:34.506Z,8.03
2019-04-07T05:07:11.309Z,7.00
2019-04-07T05:07:55.867Z,7.37
2019-04-07T05:08:25.891Z,7.17
2019-04-07T05:09:02.228Z,6.73
2019-04-07T05:09:44.037Z,7.40
2019-04-07T05:10:17.079Z,6.47
2019-04-07T05:10:53.404Z,7.73
2019-04-07T05:11:29.546Z,7.20
2019-04-07T05:12:06.909Z,6.97
2019-04-07T05:12:43.682Z,5.80
2019-04-07T05:13:20.360Z,5.37
2019-04-07T05:13:57.088Z,7.80
2019-04-07T05:14:33.627Z,6.40
2019-04-07T05:15:10.871Z,7.30
2019-04-07T05:15:47.853Z,7.20
2019-04-07T05:16:25.164Z,6.77
2019-04-07T05:17:01.670Z,7.33
2019-04-07T05:17:38.224Z,7.60
2019-04-07T05:18:14.908Z,7.00
2019-04-07T05:18:51.840Z,7.57
2019-04-07T05:19:28.784Z,6.07
2019-04-07T05:20:05.834Z,6.50
2019-04-07T05:20:42.716Z,7.30
2019-04-07T05:21:19.545Z,6.17
2019-04-07T05:21:56.058Z,6.33
2019-04-07T05:22:33.256Z,6.50
2019-04-07T05:23:10.008Z,6.60
2019-04-07T05:23:47.082Z,6.03
2019-04-07T05:24:24.726Z,6.27
2019-04-07T05:25:02.299Z,6.03
2019-04-07T05:25:39.157Z,5.83
2019-04-07T05:26:15.760Z,5.30
2019-04-07T05:26:53.071Z,6.00
2019-04-07T05:27:30.276Z,6.27
2019-04-07T05:28:06.997Z,6.00
2019-04-07T05:28:43.911Z,6.00
2019-04-07T05:29:20.335Z,6.10
2019-04-07T05:29:56.914Z,5.50
2019-04-07T05:30:33.729Z,5.43
2019-04-07T05:31:10.649Z,5.70
2019-04-07T05:31:47.474Z,5.53
2019-04-07T05:32:24.505Z,5.07
2019-04-07T05:33:01.765Z,5.40
2019-04-07T05:33:38.573Z,5.70
2019-04-07T05:34:19.319Z,6.20
2019-04-07T05:34:53.523Z,4.80
2019-04-07T05:35:30.144Z,5.47
2019-04-07T05:36:09.263Z,5.20
2019-04-07T05:36:45.714Z,5.37
2019-04-07T05:37:22.102Z,6.17
2019-04-07T05:38:02.662Z,6.10
2019-04-07T05:38:37.734Z,6.33
2019-04-07T05:39:14.173Z,5.90
2019-04-07T05:39:50.722Z,6.17
2019-04-07T05:40:27.774Z,5.63
2019-04-07T05:41:04.260Z,6.00
2019-04-07T05:41:41.508Z,6.07
2019-04-07T05:42:18.846Z,6.13
2019-04-07T05:42:58.735Z,6.67
2019-04-07T05:43:34.012Z,6.63
2019-04-07T05:44:10.411Z,6.83
2019-04-07T05:44:47.610Z,6.20
2019-04-07T05:45:24.802Z,5.93
2019-04-07T05:46:01.743Z,5.83
2019-04-07T05:46:41.462Z,6.70
2019-04-07T05:47:16.538Z,6.03
2019-04-07T05:47:53.477Z,6.33
2019-04-07T05:48:30.156Z,6.17
2019-04-07T05:49:06.662Z,5.13
2019-04-07T05:49:43.383Z,6.30
2019-04-07T05:50:20.119Z,5.67
2019-04-07T05:50:59.934Z,5.47
2019-04-07T05:51:34.217Z,5.73
2019-04-07T05:52:10.504Z,5.57
2019-04-07T05:52:46.827Z,6.30
2019-04-07T05:53:23.462Z,5.73
2019-04-07T05:54:00.296Z,6.17
2019-04-07T05:54:37.856Z,5.80
2019-04-07T05:55:15.199Z,5.37
2019-04-07T05:55:55.386Z,5.53
2019-04-07T05:56:32.516Z,6.17
2019-04-07T05:57:09.674Z,6.20
2019-04-07T05:57:46.516Z,6.15
2019-04-07T05:58:23.318Z,6.17
2019-04-07T05:58:59.669Z,6.87
2019-04-07T05:59:36.522Z,7.20
2019-04-07T06:00:16.349Z,6.53
2019-04-07T06:00:52.102Z,6.23
2019-04-07T06:01:28.417Z,6.60
2019-04-07T06:02:04.650Z,7.10
2019-04-07T06:02:41.630Z,6.87
2019-04-07T06:03:18.517Z,7.87
2019-04-07T06:03:55.420Z,7.00
2019-04-07T06:04:31.769Z,7.77
2019-04-07T06:05:08.472Z,7.63
2019-04-07T06:05:48.259Z,6.20
2019-04-07T06:06:22.672Z,7.20
2019-04-07T06:06:59.110Z,7.23
2019-04-07T06:07:36.749Z,6.57
2019-04-07T06:08:24.657Z,7.03
2019-04-07T06:08:51.832Z,7.73
2019-04-07T06:09:28.178Z,8.90
2019-04-07T06:10:05.370Z,7.50
2019-04-07T06:10:41.612Z,7.00
2019-04-07T06:11:17.864Z,6.37
2019-04-07T06:11:54.481Z,6.90
2019-04-07T06:12:31.503Z,6.40
2019-04-07T06:13:11.282Z,6.73
2019-04-07T06:13:46.624Z,7.27
2019-04-07T06:14:24.309Z,7.10
2019-04-07T06:15:00.656Z,7.20
2019-04-07T06:15:37.105Z,7.60
2019-04-07T06:16:14.024Z,7.63
2019-04-07T06:16:53.594Z,7.97
2019-04-07T06:17:28.499Z,7.03
2019-04-07T06:18:05.181Z,7.03
2019-04-07T06:18:42.147Z,6.80
2019-04-07T06:19:19.141Z,7.30
2019-04-07T06:19:55.787Z,8.07
2019-04-07T06:20:32.345Z,6.17
2019-04-07T06:21:09.316Z,7.87
2019-04-07T06:21:47.355Z,7.00
2019-04-07T06:22:23.839Z,7.33
2019-04-07T06:23:00.392Z,7.00
2019-04-07T06:23:36.582Z,6.57
2019-04-07T06:24:13.397Z,6.43
2019-04-07T06:24:50.236Z,5.97
2019-04-07T06:25:27.321Z,7.10
2019-04-07T06:26:06.662Z,6.50
2019-04-07T06:26:43.914Z,6.10
2019-04-07T06:27:19.691Z,6.10
2019-04-07T06:27:56.848Z,6.87
2019-04-07T06:28:33.815Z,6.17
2019-04-07T06:29:10.550Z,6.40
2019-04-07T06:29:46.998Z,6.83
2019-04-07T06:30:28.131Z,6.07
2019-04-07T06:31:03.525Z,6.50
2019-04-07T06:31:44.858Z,5.70
2019-04-07T06:32:21.892Z,6.57
2019-04-07T06:32:58.217Z,5.93
2019-04-07T06:33:37.370Z,6.10
2019-04-07T06:34:12.342Z,6.27
2019-04-07T06:34:50.024Z,5.80
2019-04-07T06:35:27.035Z,5.67
2019-04-07T06:36:03.852Z,5.97
2019-04-07T06:36:40.821Z,5.80
2019-04-07T06:37:17.758Z,6.07
2019-04-07T06:37:55.782Z,7.20
2019-04-07T06:38:35.585Z,6.30
2019-04-07T06:39:11.157Z,5.73
2019-04-07T06:39:50.728Z,5.90
2019-04-07T06:40:25.571Z,5.60
2019-04-07T06:41:03.026Z,5.03
2019-04-07T06:41:39.509Z,6.10
2019-04-07T06:42:15.778Z,5.40
2019-04-07T06:42:52.073Z,5.40
2019-04-07T06:43:28.195Z,6.10
2019-04-07T06:44:12.683Z,5.70
2019-04-07T06:44:42.660Z,5.60
2019-04-07T06:45:22.754Z,5.70
2019-04-07T06:46:24.629Z,5.40
2019-04-07T06:47:06.697Z,6.30
2019-04-07T06:47:46.117Z,5.83
2019-04-07T06:48:22.307Z,5.63
2019-04-07T06:49:11.184Z,6.00
2019-04-07T06:50:08.599Z,6.77
2019-04-07T06:51:03.912Z,5.93
2019-04-07T06:51:46.491Z,6.10
2019-04-07T06:52:34.583Z,5.97
2019-04-07T06:53:18.917Z,5.77
2019-04-07T06:54:03.594Z,6.00
2019-04-07T06:54:56.195Z,6.97
2019-04-07T06:55:49.708Z,6.40
2019-04-07T06:56:42.058Z,6.10
2019-04-07T06:57:51.877Z,6.10
2019-04-07T06:58:45.464Z,6.17
2019-04-07T06:59:49.068Z,7.20
2019-04-07T07:00:43.324Z,7.00
2019-04-07T07:01:41.115Z,7.30
2019-04-07T07:02:47.910Z,6.73
2019-04-07T07:03:55.192Z,7.10
2019-04-07T07:04:45.816Z,6.97
2019-04-07T07:05:33.579Z,6.90
2019-04-07T07:06:30.979Z,7.73
2019-04-07T07:07:24.130Z,8.07
2019-04-07T07:08:12.657Z,6.67
2019-04-07T07:09:08.292Z,7.40
2019-04-07T07:10:06.631Z,7.77
2019-04-07T07:11:05.821Z,6.63
2019-04-07T07:12:18.293Z,7.50
2019-04-07T07:13:01.525Z,8.07
2019-04-07T07:13:54.861Z,7.93
2019-04-07T07:14:44.965Z,7.23
2019-04-07T07:15:33.782Z,7.20
2019-04-07T07:16:29.948Z,7.50
2019-04-07T07:17:21.170Z,7.07
2019-04-07T07:18:25.664Z,7.17
2019-04-07T07:19:19.691Z,7.80
2019-04-07T07:20:11.286Z,6.83
2019-04-07T07:21:09.085Z,7.20
2019-04-07T07:22:14.812Z,7.10
2019-04-07T07:22:56.203Z,7.40
2019-04-07T07:23:36.382Z,8.60
2019-04-07T07:24:14.672Z,8.73
2019-04-07T07:24:53.201Z,8.33
2019-04-07T07:25:31.140Z,8.60
2019-04-07T07:26:07.289Z,7.67
2019-04-07T07:26:44.138Z,7.80
2019-04-07T07:27:20.765Z,8.67
2019-04-07T07:27:57.767Z,8.90
2019-04-07T07:28:34.766Z,7.40
2019-04-07T07:29:13.229Z,8.50
2019-04-07T07:29:51.898Z,7.63
2019-04-07T07:30:27.216Z,8.03
2019-04-07T07:31:04.295Z,8.90
2019-04-07T07:31:40.505Z,7.75
2019-04-07T07:32:16.987Z,8.27
2019-04-07T07:32:53.301Z,7.90
2019-04-07T07:33:29.633Z,8.20
2019-04-07T07:34:09.277Z,7.30
2019-04-07T07:34:43.918Z,7.07
2019-04-07T07:35:20.242Z,8.13
2019-04-07T07:35:57.011Z,7.30
2019-04-07T07:36:33.832Z,8.30
2019-04-07T07:37:10.604Z,8.30
2019-04-07T07:37:47.601Z,8.20
2019-04-07T07:38:24.716Z,7.70
2019-04-07T07:39:02.451Z,8.00
2019-04-07T07:39:41.950Z,8.53
2019-04-07T07:40:18.349Z,8.85
2019-04-07T07:40:54.710Z,8.97
2019-04-07T07:41:31.205Z,9.10
2019-04-07T07:42:08.196Z,7.87
2019-04-07T07:42:44.447Z,8.43
2019-04-07T07:43:21.104Z,7.70
2019-04-07T07:44:01.422Z,7.87
2019-04-07T07:44:37.552Z,8.10
2019-04-07T07:45:14.000Z,9.43
2019-04-07T07:45:51.233Z,8.40
2019-04-07T07:46:27.917Z,6.90
2019-04-07T07:47:04.230Z,7.67
2019-04-07T07:47:40.442Z,8.10
2019-04-07T07:48:17.495Z,7.67
2019-04-07T07:48:57.081Z,6.77
2019-04-07T07:49:37.058Z,8.00
2019-04-07T07:50:13.572Z,7.53
2019-04-07T07:50:50.156Z,7.20
2019-04-07T07:51:26.754Z,7.57
2019-04-07T07:52:03.143Z,7.37
2019-04-07T07:52:39.891Z,6.70
2019-04-07T07:53:16.825Z,5.90
2019-04-07T07:53:56.582Z,8.20
2019-04-07T07:54:31.613Z,6.67
2019-04-07T07:55:08.114Z,7.77
2019-04-07T07:55:44.546Z,6.77
2019-04-07T07:56:21.355Z,7.30
2019-04-07T07:56:58.066Z,7.53
2019-04-07T07:57:35.476Z,6.47
2019-04-07T07:58:12.230Z,6.83
2019-04-07T07:58:49.270Z,6.90
2019-04-07T07:59:25.464Z,7.30
2019-04-07T08:00:05.147Z,8.17
2019-04-07T08:00:42.176Z,7.40
2019-04-07T08:03:12.074Z,7.57
2019-04-07T08:03:52.987Z,7.20
2019-04-07T08:04:32.130Z,7.33
2019-04-07T08:05:09.259Z,6.80
2019-04-07T08:05:49.348Z,7.30
2019-04-07T08:06:28.361Z,7.77
2019-04-07T08:07:09.048Z,6.90
2019-04-07T08:07:51.223Z,7.37
2019-04-07T08:08:28.946Z,6.80
2019-04-07T08:09:12.819Z,8.13
2019-04-07T08:09:45.521Z,8.00
2019-04-07T08:10:25.008Z,7.60
2019-04-07T08:11:02.635Z,8.73
2019-04-07T08:11:39.744Z,7.40
2019-04-07T08:12:18.102Z,8.83
2019-04-07T08:12:57.364Z,8.17
2019-04-07T08:13:43.346Z,7.40
2019-04-07T08:14:18.234Z,7.30
2019-04-07T08:15:03.427Z,8.00
2019-04-07T08:15:41.445Z,6.73
2019-04-07T08:16:19.250Z,8.13
2019-04-07T08:17:00.172Z,7.50
2019-04-07T08:17:35.637Z,7.60
2019-04-07T08:18:12.459Z,7.30
2019-04-07T08:18:54.360Z,8.77
2019-04-07T08:19:31.808Z,7.50
2019-04-07T08:20:16.433Z,8.37
2019-04-07T08:20:55.047Z,8.00
2019-04-07T08:21:31.611Z,8.33
2019-04-07T08:22:27.577Z,8.40
2019-04-07T08:23:05.288Z,9.47
2019-04-07T08:23:45.165Z,7.57
2019-04-07T08:24:28.376Z,10.00
2019-04-07T08:25:09.741Z,8.70
2019-04-07T08:25:54.472Z,8.90
2019-04-07T08:26:31.732Z,9.13
2019-04-07T08:27:08.929Z,8.60
2019-04-07T08:27:45.476Z,9.70
2019-04-07T08:28:22.665Z,10.47
2019-04-07T08:29:05.616Z,8.27
2019-04-07T08:29:42.002Z,9.33
2019-04-07T08:30:18.535Z,10.40
2019-04-07T08:30:57.646Z,9.63
2019-04-07T08:31:35.098Z,9.67
2019-04-07T08:32:14.097Z,8.97
2019-04-07T08:32:50.502Z,9.67
2019-04-07T08:33:42.071Z,10.43
2019-04-07T08:34:22.344Z,10.23
2019-04-07T08:35:02.714Z,9.83
2019-04-07T08:35:40.771Z,9.70
2019-04-07T08:36:17.294Z,9.67
2019-04-07T08:36:56.363Z,10.90
2019-04-07T08:37:45.914Z,9.67
2019-04-07T08:38:38.888Z,10.30
2019-04-07T08:39:22.848Z,9.23
2019-04-07T08:40:04.770Z,9.90
2019-04-07T08:40:39.300Z,9.80
2019-04-07T08:41:16.681Z,9.50
2019-04-07T08:41:52.999Z,9.27
2019-04-07T08:42:32.891Z,9.23
2019-04-07T08:43:12.629Z,9.60
2019-04-07T08:43:53.225Z,9.07
2019-04-07T08:45:35.044Z,9.17
2019-04-07T08:46:13.648Z,8.90
2019-04-07T08:46:50.802Z,9.17
2019-04-07T08:47:29.068Z,7.97
2019-04-07T08:48:07.330Z,9.43
2019-04-07T08:48:44.433Z,9.83
2019-04-07T08:49:55.400Z,8.27
2019-04-07T08:50:34.276Z,9.20
2019-04-07T08:51:11.369Z,9.00
2019-04-07T08:51:50.976Z,8.30
2019-04-07T08:52:27.224Z,9.80
2019-04-07T08:53:10.315Z,8.97
2019-04-07T08:53:45.269Z,9.60
2019-04-07T08:54:23.215Z,9.37
2019-04-07T08:55:01.786Z,9.03
2019-04-07T08:55:40.541Z,10.13
2019-04-07T08:56:18.422Z,10.13
2019-04-07T08:56:58.524Z,9.67
2019-04-07T08:58:02.501Z,9.40
2019-04-07T08:58:43.296Z,10.30
2019-04-07T08:59:19.570Z,10.37
2019-04-07T08:59:56.266Z,9.40
2019-04-07T09:00:46.503Z,9.30
2019-04-07T09:01:29.578Z,8.70
2019-04-07T09:02:06.429Z,9.30
2019-04-07T09:02:44.700Z,9.20
2019-04-07T09:03:24.635Z,9.93
2019-04-07T09:04:01.580Z,9.20
2019-04-07T09:04:49.742Z,10.13
2019-04-07T09:05:27.675Z,9.70
2019-04-07T09:06:02.988Z,11.07
2019-04-07T09:06:43.881Z,9.00
2019-04-07T09:07:31.027Z,8.50
2019-04-07T09:08:10.105Z,9.10
2019-04-07T09:08:52.212Z,8.73
2019-04-07T09:09:34.926Z,9.20
2019-04-07T09:10:35.607Z,9.03
2019-04-07T09:11:20.041Z,7.87
2019-04-07T09:11:56.738Z,9.00
2019-04-07T09:12:35.025Z,9.07
2019-04-07T09:13:12.156Z,8.87
2019-04-07T09:14:08.548Z,7.60
2019-04-07T09:14:45.648Z,8.70
2019-04-07T09:15:29.557Z,8.47
2019-04-07T09:16:20.017Z,7.93
2019-04-07T09:17:30.916Z,8.17
2019-04-07T09:18:38.932Z,8.73
2019-04-07T09:19:50.861Z,8.40
2019-04-07T09:21:04.528Z,9.20
2019-04-07T09:22:06.282Z,8.87
2019-04-07T09:24:37.089Z,8.27
2019-04-07T09:25:35.836Z,7.87
2019-04-07T09:26:29.495Z,9.10
2019-04-07T09:27:34.057Z,8.37
2019-04-07T09:29:00.804Z,8.70
2019-04-07T09:29:46.061Z,7.63
2019-04-07T09:30:43.168Z,8.70
2019-04-07T09:33:36.519Z,7.77
2019-04-07T09:34:30.306Z,8.63
2019-04-07T09:35:26.479Z,8.80
2019-04-07T09:36:12.453Z,8.43
2019-04-07T09:37:18.531Z,8.73
2019-04-07T09:38:29.649Z,8.80
2019-04-07T09:40:58.452Z,8.07
2019-04-07T09:41:55.351Z,8.47
2019-04-07T09:42:57.395Z,8.30
2019-04-07T09:44:12.497Z,9.00
2019-04-07T09:45:10.819Z,8.60
2019-04-07T09:46:14.688Z,8.33
2019-04-07T09:47:15.917Z,8.77
2019-04-07T09:50:06.820Z,9.53
2019-04-07T09:51:08.566Z,8.13
2019-04-07T09:52:10.373Z,8.03